Thursday, January 18, 2018, 11:00 PM EST
Back to Local

K1V4, St Johnsbury Fairbanks

Location: Saint Johnsbury, VT, United States Lat: 44.417
Local Time: 11:00 PM EST ( 4:00 GMT) Lon: -72.017
Time Zone: US/Eastern Elev: 695 ft

Show me the last for .
Show Coded

Time T Td Feel RH Dir Speed Gust Alt SLP Vis Weather Sky Remarks
2018-01-18 21:54 19 18 - 95 - - - 29.90 29.96 0 None
2018-01-18 20:54 19 18 - 95 - - - 29.89 29.95 0 None
2018-01-18 19:54 19 18 - 95 - - - 29.88 29.95 0 None
2018-01-18 18:54 22 19 - 88 - - - 29.88 29.94 0 6-hr Min Temp (7pm): 21.0°F
6-hr Max Temp (7pm): 24.1°F
2018-01-18 17:54 22 19 - 88 - - - 29.88 29.94 0 None
2018-01-18 16:54 24 19 - 80 - - - 29.86 29.92 0 None
2018-01-18 15:54 24 19 - 80 - - - 29.86 29.91 0 None
2018-01-18 14:54 24 18 - 77 - - - 29.86 29.91 0 None
2018-01-18 13:54 24 18 - 77 - - - 29.86 29.92 0 None
2018-01-18 12:54 23 17 - 77 - - - 29.87 29.92 0 6-hr Min Temp (1pm): 3.9°F
6-hr Max Temp (1pm): 24.1°F
2018-01-18 11:54 21 15 - 77 - - - 29.89 29.94 0 None
2018-01-18 10:54 17 14 - 87 - - - 29.92 29.97 0 None
2018-01-18 09:54 12 11 - 95 - - - 29.94 29.99 0 None
2018-01-18 08:54 7 6 - 95 - - - 29.95 30.01 0 None
2018-01-18 07:54 4 3 - 95 - - - 29.95 30.01 0 None
2018-01-18 06:54 5 3 - 91 - - - 29.95 30.01 0 24-hr Precip Total (7am): 0.04"
6-hr Min Temp (7am): 5.0°F
6-hr Max Temp (7am): 12.9°F
2018-01-18 05:54 6 4 - 90 - - - 29.95 30.01 0 None
2018-01-18 04:54 8 6 - 91 - - - 29.96 30.01 0 None
2018-01-18 03:54 9 7 - 91 - - - 29.96 30.02 0 None
2018-01-18 02:54 10 8 - 91 - - - 29.97 30.02 0 None
2018-01-18 01:54 12 10 - 91 - - - 29.97 30.02 0 None
2018-01-18 00:54 13 12 - 96 - - - 29.98 30.03 0 6-hr Min Temp (1am): 12.9°F
6-hr Max Temp (1am): 27.0°F
2018-01-17 23:54 16 15 - 96 - - - 30.00 30.05 0 24-hr Min Temp (12am): 16.0°F
24-hr Max Temp (12am): 28.9°F

Support USWX by starting your Amazon purchase here.